Hauptseite
METAR-TAF:

METAR-TAF

Flughäfen :

Flughafen Trujillo

Trujillo, Peru

Breite: 08-06S, Länge: 079-02W, Höhe: 26 m

Beobachtung

Neuester Wetterbericht von vor 59 Minuten, um 10:00 UTC
Wind 3 kt aus Ost
Temperatur 14°C
Luftfeuchtigkeit 88%
Luftdruck 1013 hPa
Sichtweite: 6000 m
Nebelschwaden

METAR: SPRU 221000Z 10003KT 6000 BCFG NSC 14/12 Q1013 RMK PP000

Zeit: 05:59 (10:59 UTC)

Prognose

Neuester Wetterbericht von vor 1 Stunde und 49 Minuten, um 09:10 UTC
Gültige Prognose vom 22 um 09 UTC bis 23 um 06 UTC
Wind 5 kt aus Süd/Südost
Sichtweite: 4500 m
feuchter Dunst
Übergehend zu
vom 22 um 13 UTC bis 22 um 15 UTC
Sichtweite: 6000 m
Zeitweise
vom 23 um 02 UTC bis 23 um 05 UTC
Sichtweite: 4500 m
feuchter Dunst,

TAF: SPRU 220910Z 2209/2306 15005KT 4500 BR NSC TX19/2219Z TN16/2211Z BECMG 2213/2215 6000 NSW TEMPO 2302/2305 4500 BR

Wetterbeobachtungen und Prognosen von mehr als 4000 Flughäfen (METAR und TAF Bericht).

Die verfügbaren Stationen werden durch gelbe und rote Markierungen auf der Karte dargestellt.

Führen Sie die Maus auf sie, um den Namen der Station zu sehen.

Darauf klicken, um die Beobachtung von Wetterbeobachtungen und Prognosen zu sehen.

Um die Karte zu ändern : klicken Sie auf den grünen Tasten mit einem schwarzen Kreuz Zum Vergrößern, auf den grünen Button mit einem Gedankenstrich zu verkleinern, oder auf die grünen Pfeile für benachbarte Karten.


METAR-TAF: